Bangor, ME (04401)

12:52 AM EST on November 25, 2017 (GMT -0500)
Essex St Hill | | Change Station

Elev 208 ft 44.82 °N, 68.77 °W | Updated 13 seconds ago

Partly Cloudy
Partly Cloudy
38.4 °F
Feels Like 35 °F
N
4.0
Wind Variable Wind from WSW
Gusts 5.0 mph

Today
High -- | Low -- °F
--% Chance of Precip.
Yesterday
High -- | Low -- °F
Precip. -- in
Pressure 29.84 in
Visibility 10.0 miles
Clouds Few 20000 ft
Windchill 35 °F
Dew Point 33 °F
Humidity 81%
Rainfall 0.00 in
Snow Depth Not available.
6:45 AM 3:58 PM
Waxing Crescent, 36% visible
METAR KBGR 250453Z 21004KT 10SM FEW200 03/01 A2984 RMK AO2 SLP105 T00280006 400721028
Pressure 29.84 in
Visibility 10.0 miles
Clouds Few 20000 ft
Windchill 35 °F
Dew Point 33 °F
Humidity 81%
Rainfall 0.00 in
Snow Depth Not available.
6:45 AM 3:58 PM
Waxing Crescent, 36% visible
METAR KBGR 250453Z 21004KT 10SM FEW200 03/01 A2984 RMK AO2 SLP105 T00280006 400721028

Get Severe Weather Alerts

Thanks for signing up!

Be on the lookout for a verification email in your inbox.

You'll start receiving the daily forecast at 6 AM.

×

10-Day Weather Forecast

Almanac

Astronomy

Nov. 25, 2017 Rise Set
Actual Time
Civil Twilight
Nautical Twilight
Astronomical Twilight
Moon
Length of Visible Light
Length of Day
Tomorrow will be .
, % of the Moon is Illuminated

Today's Extremes

State Highs State Lows

Community

WunderPhotos

Category 6

Welcome to Category 6. This is the collective home for Weather Underground's featured writeups by Dr. Jeff Masters (right), Bob Henson (left), Chris Burt, and other regular contributors.

Nearby

Air Quality

  Air Quality AQ Index Pollutant
Not available.

Snow Depth

Station Depth Elevation

Earthquake Activity

City Distance Mag. Time & Date
Minimum magnitude displayed is 2.5.

Coastal Water Temperatures

Place Temperature

Stations

Nearby Weather Stations

Station Location Temp. Windchill Dew Point Humidity Wind Precip. Elev Updated Type
                   

Watches & Warnings

There are currently no watches in effect.